sensor_id;sensor_type;location;lat;lon;timestamp;pressure;altitude;pressure_sealevel;temperature;humidity
21129;BME280;10722;51.910;8.352;2023-05-09T00:00:46;101141.63;;;14.69;100.00
21129;BME280;10722;51.910;8.352;2023-05-09T00:03:33;101144.22;;;14.65;100.00
21129;BME280;10722;51.910;8.352;2023-05-09T00:06:18;101129.50;;;14.70;100.00
21129;BME280;10722;51.910;8.352;2023-05-09T00:09:03;101126.00;;;14.65;100.00
21129;BME280;10722;51.910;8.352;2023-05-09T00:11:49;101137.13;;;14.51;100.00
21129;BME280;10722;51.910;8.352;2023-05-09T00:14:34;101124.25;;;14.67;100.00
21129;BME280;10722;51.910;8.352;2023-05-09T00:17:19;101111.31;;;14.73;100.00
21129;BME280;10722;51.910;8.352;2023-05-09T00:20:08;101113.81;;;14.59;100.00
21129;BME280;10722;51.910;8.352;2023-05-09T00:22:53;101104.25;;;14.61;100.00
21129;BME280;10722;51.910;8.352;2023-05-09T00:25:38;101107.75;;;14.66;100.00
21129;BME280;10722;51.910;8.352;2023-05-09T00:28:24;101095.63;;;14.65;100.00
21129;BME280;10722;51.910;8.352;2023-05-09T00:31:08;101085.16;;;14.57;100.00
21129;BME280;10722;51.910;8.352;2023-05-09T00:33:53;101087.78;;;14.62;100.00
21129;BME280;10722;51.910;8.352;2023-05-09T00:36:38;101092.84;;;14.45;100.00
21129;BME280;10722;51.910;8.352;2023-05-09T00:39:24;101091.06;;;14.40;100.00
21129;BME280;10722;51.910;8.352;2023-05-09T00:42:09;101074.56;;;14.38;100.00
21129;BME280;10722;51.910;8.352;2023-05-09T00:44:54;101073.72;;;14.40;100.00
21129;BME280;10722;51.910;8.352;2023-05-09T00:47:40;101076.25;;;14.35;100.00
21129;BME280;10722;51.910;8.352;2023-05-09T00:50:25;101069.34;;;14.38;100.00
21129;BME280;10722;51.910;8.352;2023-05-09T00:53:10;101065.78;;;14.26;100.00
21129;BME280;10722;51.910;8.352;2023-05-09T00:55:56;101067.63;;;14.37;100.00
21129;BME280;10722;51.910;8.352;2023-05-09T00:58:42;101055.44;;;14.34;100.00
21129;BME280;10722;51.910;8.352;2023-05-09T01:01:28;101053.63;;;14.22;100.00
21129;BME280;10722;51.910;8.352;2023-05-09T01:04:14;101048.34;;;14.16;100.00
21129;BME280;10722;51.910;8.352;2023-05-09T01:07:13;101032.72;;;14.13;100.00
21129;BME280;10722;51.910;8.352;2023-05-09T01:13:14;101006.81;;;14.30;100.00
21129;BME280;10722;51.910;8.352;2023-05-09T01:16:11;100994.53;;;14.06;100.00
21129;BME280;10722;51.910;8.352;2023-05-09T01:19:32;100998.84;;;14.04;100.00
21129;BME280;10722;51.910;8.352;2023-05-09T01:22:28;100988.44;;;14.07;100.00
21129;BME280;10722;51.910;8.352;2023-05-09T01:30:50;100972.75;;;13.92;100.00
21129;BME280;10722;51.910;8.352;2023-05-09T01:33:39;100973.66;;;13.98;100.00
21129;BME280;10722;51.910;8.352;2023-05-09T01:36:29;100968.47;;;14.00;100.00
21129;BME280;10722;51.910;8.352;2023-05-09T01:39:17;100960.59;;;13.94;100.00
21129;BME280;10722;51.910;8.352;2023-05-09T01:42:06;100969.22;;;13.86;100.00
21129;BME280;10722;51.910;8.352;2023-05-09T01:44:53;100966.59;;;13.80;100.00
21129;BME280;10722;51.910;8.352;2023-05-09T01:47:39;100974.34;;;13.79;100.00
21129;BME280;10722;51.910;8.352;2023-05-09T01:50:28;100981.28;;;13.75;100.00
21129;BME280;10722;51.910;8.352;2023-05-09T01:53:16;100981.25;;;13.77;100.00
21129;BME280;10722;51.910;8.352;2023-05-09T01:56:02;100981.19;;;13.63;100.00
21129;BME280;10722;51.910;8.352;2023-05-09T01:58:49;100975.94;;;13.61;100.00
21129;BME280;10722;51.910;8.352;2023-05-09T02:01:35;100986.22;;;13.51;100.00
21129;BME280;10722;51.910;8.352;2023-05-09T02:04:22;100989.69;;;13.51;100.00
21129;BME280;10722;51.910;8.352;2023-05-09T02:07:08;100992.28;;;13.47;100.00
21129;BME280;10722;51.910;8.352;2023-05-09T02:09:54;100985.34;;;13.47;100.00
21129;BME280;10722;51.910;8.352;2023-05-09T02:12:41;100991.44;;;13.49;100.00
21129;BME280;10722;51.910;8.352;2023-05-09T02:15:28;100986.31;;;13.58;100.00
21129;BME280;10722;51.910;8.352;2023-05-09T02:18:13;100984.47;;;13.48;100.00
21129;BME280;10722;51.910;8.352;2023-05-09T02:20:59;100974.03;;;13.42;100.00
21129;BME280;10722;51.910;8.352;2023-05-09T02:23:44;100970.50;;;13.35;100.00
21129;BME280;10722;51.910;8.352;2023-05-09T02:26:29;100960.97;;;13.37;100.00
21129;BME280;10722;51.910;8.352;2023-05-09T02:29:16;100960.97;;;13.36;100.00
21129;BME280;10722;51.910;8.352;2023-05-09T02:32:10;100947.00;;;13.26;99.70
21129;BME280;10722;51.910;8.352;2023-05-09T02:34:57;100943.66;;;13.36;99.15
21129;BME280;10722;51.910;8.352;2023-05-09T02:37:44;100937.34;;;13.16;98.78
21129;BME280;10722;51.910;8.352;2023-05-09T02:40:29;100942.72;;;13.27;98.37
21129;BME280;10722;51.910;8.352;2023-05-09T02:43:15;100939.16;;;13.21;98.26
21129;BME280;10722;51.910;8.352;2023-05-09T02:46:00;100952.13;;;13.20;98.99
21129;BME280;10722;51.910;8.352;2023-05-09T02:48:46;100955.47;;;13.10;99.84
21129;BME280;10722;51.910;8.352;2023-05-09T02:51:31;100966.63;;;12.99;100.00
21129;BME280;10722;51.910;8.352;2023-05-09T02:54:17;100973.63;;;13.07;100.00
21129;BME280;10722;51.910;8.352;2023-05-09T02:57:02;100967.53;;;13.05;100.00
21129;BME280;10722;51.910;8.352;2023-05-09T02:59:47;100958.81;;;12.98;100.00
21129;BME280;10722;51.910;8.352;2023-05-09T03:02:33;100959.75;;;13.05;100.00
21129;BME280;10722;51.910;8.352;2023-05-09T03:05:18;100950.06;;;12.91;100.00
21129;BME280;10722;51.910;8.352;2023-05-09T03:08:04;100949.28;;;12.95;100.00
21129;BME280;10722;51.910;8.352;2023-05-09T03:10:49;100926.00;;;13.05;99.04
21129;BME280;10722;51.910;8.352;2023-05-09T03:13:35;100919.81;;;12.93;98.62
21129;BME280;10722;51.910;8.352;2023-05-09T03:16:19;100929.34;;;12.97;98.77
21129;BME280;10722;51.910;8.352;2023-05-09T03:19:05;100926.75;;;12.96;98.57
21129;BME280;10722;51.910;8.352;2023-05-09T03:21:50;100923.31;;;12.95;98.66
21129;BME280;10722;51.910;8.352;2023-05-09T03:24:34;100937.16;;;12.97;98.75
21129;BME280;10722;51.910;8.352;2023-05-09T03:27:20;100927.66;;;12.98;99.13
21129;BME280;10722;51.910;8.352;2023-05-09T03:30:05;100923.28;;;12.97;99.12
21129;BME280;10722;51.910;8.352;2023-05-09T03:32:51;100908.56;;;12.93;98.17
21129;BME280;10722;51.910;8.352;2023-05-09T03:35:36;100914.63;;;12.93;98.21
21129;BME280;10722;51.910;8.352;2023-05-09T03:38:21;100912.75;;;12.83;98.59
21129;BME280;10722;51.910;8.352;2023-05-09T03:41:07;100922.28;;;12.81;98.94
21129;BME280;10722;51.910;8.352;2023-05-09T03:43:52;100924.03;;;12.85;98.97
21129;BME280;10722;51.910;8.352;2023-05-09T03:46:37;100923.97;;;12.79;99.29
21129;BME280;10722;51.910;8.352;2023-05-09T03:49:23;100940.34;;;12.73;99.97
21129;BME280;10722;51.910;8.352;2023-05-09T03:52:08;100918.91;;;12.90;99.73
21129;BME280;10722;51.910;8.352;2023-05-09T03:54:53;100927.44;;;12.79;99.88
21129;BME280;10722;51.910;8.352;2023-05-09T03:57:39;100929.13;;;12.77;100.00
21129;BME280;10722;51.910;8.352;2023-05-09T04:00:24;100916.25;;;12.85;100.00
21129;BME280;10722;51.910;8.352;2023-05-09T04:03:09;100920.59;;;12.88;100.00
21129;BME280;10722;51.910;8.352;2023-05-09T04:05:55;100920.56;;;12.86;100.00
21129;BME280;10722;51.910;8.352;2023-05-09T04:08:40;100924.91;;;12.86;100.00
21129;BME280;10722;51.910;8.352;2023-05-09T04:11:26;100929.25;;;12.88;100.00
21129;BME280;10722;51.910;8.352;2023-05-09T04:14:11;100930.97;;;12.85;100.00
21129;BME280;10722;51.910;8.352;2023-05-09T04:16:56;100923.34;;;12.98;100.00
21129;BME280;10722;51.910;8.352;2023-05-09T04:19:41;100927.78;;;13.12;100.00
21129;BME280;10722;51.910;8.352;2023-05-09T04:22:27;100929.47;;;13.08;100.00
21129;BME280;10722;51.910;8.352;2023-05-09T04:25:12;100918.19;;;13.05;100.00
21129;BME280;10722;51.910;8.352;2023-05-09T04:27:58;100926.91;;;13.11;100.00
21129;BME280;10722;51.910;8.352;2023-05-09T04:30:43;100918.28;;;13.12;100.00
21129;BME280;10722;51.910;8.352;2023-05-09T04:33:28;100922.59;;;13.12;100.00
21129;BME280;10722;51.910;8.352;2023-05-09T04:36:13;100918.22;;;13.08;100.00
21129;BME280;10722;51.910;8.352;2023-05-09T04:38:58;100928.66;;;13.11;100.00
21129;BME280;10722;51.910;8.352;2023-05-09T04:41:44;100921.06;;;13.28;100.00
21129;BME280;10722;51.910;8.352;2023-05-09T04:44:29;100936.53;;;13.18;100.00
21129;BME280;10722;51.910;8.352;2023-05-09T04:47:15;100939.19;;;13.24;100.00
21129;BME280;10722;51.910;8.352;2023-05-09T04:50:00;100947.97;;;13.33;100.00
21129;BME280;10722;51.910;8.352;2023-05-09T04:52:44;100938.50;;;13.42;100.00
21129;BME280;10722;51.910;8.352;2023-05-09T04:55:30;100941.13;;;13.44;100.00
21129;BME280;10722;51.910;8.352;2023-05-09T04:58:15;100940.28;;;13.48;100.00
21129;BME280;10722;51.910;8.352;2023-05-09T05:01:00;100926.47;;;13.49;100.00
21129;BME280;10722;51.910;8.352;2023-05-09T05:03:46;100927.41;;;13.57;100.00
21129;BME280;10722;51.910;8.352;2023-05-09T05:06:31;100919.66;;;13.63;100.00
21129;BME280;10722;51.910;8.352;2023-05-09T05:09:16;100917.84;;;13.59;100.00
21129;BME280;10722;51.910;8.352;2023-05-09T05:12:01;100916.28;;;13.78;100.00
21129;BME280;10722;51.910;8.352;2023-05-09T05:14:49;100918.00;;;13.75;100.00
21129;BME280;10722;51.910;8.352;2023-05-09T05:17:34;100912.06;;;13.96;100.00
21129;BME280;10722;51.910;8.352;2023-05-09T05:20:20;100913.03;;;14.10;100.00
21129;BME280;10722;51.910;8.352;2023-05-09T05:23:05;100907.94;;;14.28;100.00
21129;BME280;10722;51.910;8.352;2023-05-09T05:25:50;100895.81;;;14.30;100.00
21129;BME280;10722;51.910;8.352;2023-05-09T05:28:36;100893.22;;;14.37;100.00
21129;BME280;10722;51.910;8.352;2023-05-09T05:31:21;100895.84;;;14.43;100.00
21129;BME280;10722;51.910;8.352;2023-05-09T05:34:07;100884.66;;;14.56;100.00
21129;BME280;10722;51.910;8.352;2023-05-09T05:36:52;100872.56;;;14.64;100.00
21129;BME280;10722;51.910;8.352;2023-05-09T05:39:38;100874.31;;;14.77;100.00
21129;BME280;10722;51.910;8.352;2023-05-09T05:42:23;100873.47;;;14.91;100.00
21129;BME280;10722;51.910;8.352;2023-05-09T05:45:09;100864.81;;;15.01;100.00
21129;BME280;10722;51.910;8.352;2023-05-09T05:47:54;100860.47;;;15.14;100.00
21129;BME280;10722;51.910;8.352;2023-05-09T05:50:39;100857.88;;;15.14;100.00
21129;BME280;10722;51.910;8.352;2023-05-09T05:53:24;100861.34;;;15.19;100.00
21129;BME280;10722;51.910;8.352;2023-05-09T05:56:10;100857.00;;;15.19;100.00
21129;BME280;10722;51.910;8.352;2023-05-09T05:58:55;100860.50;;;15.46;100.00
21129;BME280;10722;51.910;8.352;2023-05-09T06:01:42;100857.88;;;15.47;100.00
21129;BME280;10722;51.910;8.352;2023-05-09T06:04:30;100857.00;;;15.62;100.00
21129;BME280;10722;51.910;8.352;2023-05-09T06:07:17;100845.72;;;15.53;99.39
21129;BME280;10722;51.910;8.352;2023-05-09T06:10:02;100840.50;;;15.48;99.67
21129;BME280;10722;51.910;8.352;2023-05-09T06:12:47;100843.09;;;15.56;99.34
21129;BME280;10722;51.910;8.352;2023-05-09T06:15:33;100844.84;;;15.54;99.93
21129;BME280;10722;51.910;8.352;2023-05-09T06:18:18;100837.91;;;15.71;99.75
21129;BME280;10722;51.910;8.352;2023-05-09T06:21:04;100843.13;;;15.71;99.83
21129;BME280;10722;51.910;8.352;2023-05-09T06:23:49;100841.34;;;15.67;99.66
21129;BME280;10722;51.910;8.352;2023-05-09T06:26:51;100833.53;;;15.67;99.98
21129;BME280;10722;51.910;8.352;2023-05-09T06:29:37;100838.72;;;15.87;100.00
21129;BME280;10722;51.910;8.352;2023-05-09T06:32:22;100835.25;;;15.89;100.00
21129;BME280;10722;51.910;8.352;2023-05-09T06:35:08;100819.59;;;15.88;99.98
21129;BME280;10722;51.910;8.352;2023-05-09T06:37:53;100816.06;;;16.13;99.66
21129;BME280;10722;51.910;8.352;2023-05-09T06:40:38;100815.03;;;16.44;99.45
21129;BME280;10722;51.910;8.352;2023-05-09T06:43:24;100797.75;;;16.23;99.36
21129;BME280;10722;51.910;8.352;2023-05-09T06:46:10;100808.94;;;16.39;99.36
21129;BME280;10722;51.910;8.352;2023-05-09T06:48:55;100797.53;;;16.64;99.35
21129;BME280;10722;51.910;8.352;2023-05-09T06:51:40;100787.81;;;16.83;97.81
21129;BME280;10722;51.910;8.352;2023-05-09T06:54:26;100776.50;;;16.83;96.93
21129;BME280;10722;51.910;8.352;2023-05-09T06:57:11;100775.63;;;16.84;96.79
21129;BME280;10722;51.910;8.352;2023-05-09T06:59:57;100764.22;;;16.95;96.49
21129;BME280;10722;51.910;8.352;2023-05-09T07:02:42;100769.44;;;16.98;96.84
21129;BME280;10722;51.910;8.352;2023-05-09T07:05:28;100758.06;;;17.02;96.95
21129;BME280;10722;51.910;8.352;2023-05-09T07:08:13;100759.91;;;16.91;97.59
21129;BME280;10722;51.910;8.352;2023-05-09T07:10:59;100762.53;;;16.90;98.43
21129;BME280;10722;51.910;8.352;2023-05-09T07:13:44;100763.28;;;17.02;98.63
21129;BME280;10722;51.910;8.352;2023-05-09T07:16:29;100757.81;;;17.32;98.14
21129;BME280;10722;51.910;8.352;2023-05-09T07:19:15;100756.13;;;17.26;97.37
21129;BME280;10722;51.910;8.352;2023-05-09T07:22:00;100747.19;;;17.45;96.92
21129;BME280;10722;51.910;8.352;2023-05-09T07:24:45;100734.00;;;17.58;96.46
21129;BME280;10722;51.910;8.352;2023-05-09T07:27:30;100720.72;;;17.73;95.20
21129;BME280;10722;51.910;8.352;2023-05-09T07:30:16;100708.88;;;17.41;94.40
21129;BME280;10722;51.910;8.352;2023-05-09T07:33:02;100717.81;;;17.22;95.06
21129;BME280;10722;51.910;8.352;2023-05-09T07:35:47;100718.75;;;17.12;95.87
21129;BME280;10722;51.910;8.352;2023-05-09T07:38:33;100724.91;;;17.08;96.23
21129;BME280;10722;51.910;8.352;2023-05-09T07:41:18;100731.81;;;17.18;97.66
21129;BME280;10722;51.910;8.352;2023-05-09T07:44:04;100732.63;;;17.20;97.68
21129;BME280;10722;51.910;8.352;2023-05-09T07:46:49;100729.22;;;17.12;97.55
21129;BME280;10722;51.910;8.352;2023-05-09T07:49:34;100712.81;;;16.99;96.57
21129;BME280;10722;51.910;8.352;2023-05-09T07:52:19;100730.94;;;17.14;97.78
21129;BME280;10722;51.910;8.352;2023-05-09T07:55:04;100717.78;;;17.25;97.31
21129;BME280;10722;51.910;8.352;2023-05-09T07:57:50;100712.47;;;17.31;97.22
21129;BME280;10722;51.910;8.352;2023-05-09T08:00:35;100703.84;;;17.26;95.42
21129;BME280;10722;51.910;8.352;2023-05-09T08:03:21;100697.81;;;17.18;95.95
21129;BME280;10722;51.910;8.352;2023-05-09T08:06:06;100678.66;;;17.16;95.15
21129;BME280;10722;51.910;8.352;2023-05-09T08:08:51;100691.59;;;17.28;96.02
21129;BME280;10722;51.910;8.352;2023-05-09T08:11:37;100681.06;;;17.36;94.93
21129;BME280;10722;51.910;8.352;2023-05-09T08:14:22;100671.13;;;17.64;94.54
21129;BME280;10722;51.910;8.352;2023-05-09T08:17:08;100647.59;;;17.64;92.70
21129;BME280;10722;51.910;8.352;2023-05-09T08:19:53;100637.34;;;17.45;92.14
21129;BME280;10722;51.910;8.352;2023-05-09T08:22:39;100640.00;;;17.44;92.57
21129;BME280;10722;51.910;8.352;2023-05-09T08:25:24;100646.19;;;17.35;92.45
21129;BME280;10722;51.910;8.352;2023-05-09T08:28:09;100644.56;;;17.25;92.61
21129;BME280;10722;51.910;8.352;2023-05-09T08:30:55;100648.00;;;17.29;92.88
21129;BME280;10722;51.910;8.352;2023-05-09T08:33:40;100643.81;;;17.15;92.76
21129;BME280;10722;51.910;8.352;2023-05-09T08:36:26;100651.53;;;17.26;93.81
21129;BME280;10722;51.910;8.352;2023-05-09T08:39:11;100653.16;;;17.38;93.79
21129;BME280;10722;51.910;8.352;2023-05-09T08:41:58;100648.78;;;17.37;92.66
21129;BME280;10722;51.910;8.352;2023-05-09T08:44:44;100637.34;;;17.45;93.09
21129;BME280;10722;51.910;8.352;2023-05-09T08:47:29;100649.31;;;17.66;93.97
21129;BME280;10722;51.910;8.352;2023-05-09T08:50:14;100646.31;;;17.96;93.53
21129;BME280;10722;51.910;8.352;2023-05-09T08:53:01;100611.63;;;17.83;91.42
21129;BME280;10722;51.910;8.352;2023-05-09T08:55:50;100606.44;;;17.78;91.01
21129;BME280;10722;51.910;8.352;2023-05-09T08:58:35;100611.50;;;17.90;91.03
21129;BME280;10722;51.910;8.352;2023-05-09T09:01:21;100612.25;;;17.99;91.63
21129;BME280;10722;51.910;8.352;2023-05-09T09:04:07;100610.91;;;18.29;91.54
21129;BME280;10722;51.910;8.352;2023-05-09T09:06:52;100604.59;;;18.42;91.45
21129;BME280;10722;51.910;8.352;2023-05-09T09:09:43;100586.88;;;18.56;90.06
21129;BME280;10722;51.910;8.352;2023-05-09T09:12:28;100588.44;;;18.67;89.63
21129;BME280;10722;51.910;8.352;2023-05-09T09:15:17;100587.16;;;18.91;89.29
21129;BME280;10722;51.910;8.352;2023-05-09T09:18:06;100550.06;;;19.11;87.30
21129;BME280;10722;51.910;8.352;2023-05-09T09:20:56;100547.09;;;19.27;87.08
21129;BME280;10722;51.910;8.352;2023-05-09T09:23:42;100514.03;;;19.20;84.93
21129;BME280;10722;51.910;8.352;2023-05-09T09:26:29;100523.56;;;19.23;85.28
21129;BME280;10722;51.910;8.352;2023-05-09T09:29:16;100504.47;;;19.18;84.91
21129;BME280;10722;51.910;8.352;2023-05-09T09:32:04;100536.16;;;19.07;86.22
21129;BME280;10722;51.910;8.352;2023-05-09T09:34:49;100542.53;;;18.95;86.67
21129;BME280;10722;51.910;8.352;2023-05-09T09:37:36;100518.94;;;18.95;85.42
21129;BME280;10722;51.910;8.352;2023-05-09T09:40:23;100508.16;;;19.09;84.55
21129;BME280;10722;51.910;8.352;2023-05-09T09:43:08;100501.00;;;19.16;84.66
21129;BME280;10722;51.910;8.352;2023-05-09T09:45:54;100510.22;;;18.93;84.94
21129;BME280;10722;51.910;8.352;2023-05-09T09:48:38;100508.84;;;19.17;84.63
21129;BME280;10722;51.910;8.352;2023-05-09T09:51:26;100500.66;;;18.91;84.93
21129;BME280;10722;51.910;8.352;2023-05-09T09:54:11;100502.22;;;18.99;85.12
21129;BME280;10722;51.910;8.352;2023-05-09T09:56:57;100506.53;;;18.57;85.35
21129;BME280;10722;51.910;8.352;2023-05-09T09:59:57;100513.44;;;18.61;86.29
21129;BME280;10722;51.910;8.352;2023-05-09T10:02:55;100517.09;;;18.52;86.83
21129;BME280;10722;51.910;8.352;2023-05-09T10:05:41;100524.09;;;18.52;87.64
21129;BME280;10722;51.910;8.352;2023-05-09T10:08:26;100503.91;;;18.57;86.92
21129;BME280;10722;51.910;8.352;2023-05-09T10:11:11;100518.22;;;18.87;87.54
21129;BME280;10722;51.910;8.352;2023-05-09T10:13:57;100495.94;;;19.08;86.72
21129;BME280;10722;51.910;8.352;2023-05-09T10:16:42;100469.91;;;18.99;85.65
21129;BME280;10722;51.910;8.352;2023-05-09T10:19:29;100483.81;;;19.02;85.95
21129;BME280;10722;51.910;8.352;2023-05-09T10:22:15;100479.19;;;19.15;85.45
21129;BME280;10722;51.910;8.352;2023-05-09T10:25:04;100461.84;;;19.47;84.75
21129;BME280;10722;51.910;8.352;2023-05-09T10:27:52;100434.84;;;19.42;83.48
21129;BME280;10722;51.910;8.352;2023-05-09T10:30:58;100466.16;;;19.87;84.93
21129;BME280;10722;51.910;8.352;2023-05-09T10:33:46;100445.47;;;20.10;83.62
21129;BME280;10722;51.910;8.352;2023-05-09T10:36:32;100422.44;;;20.51;83.00
21129;BME280;10722;51.910;8.352;2023-05-09T10:39:17;100371.44;;;20.88;79.21
21129;BME280;10722;51.910;8.352;2023-05-09T10:42:04;100354.59;;;21.22;78.42
21129;BME280;10722;51.910;8.352;2023-05-09T10:44:50;100352.78;;;20.68;78.52
21129;BME280;10722;51.910;8.352;2023-05-09T10:47:40;100356.75;;;20.51;79.19
21129;BME280;10722;51.910;8.352;2023-05-09T10:50:26;100357.50;;;20.25;78.73
21129;BME280;10722;51.910;8.352;2023-05-09T10:53:11;100356.56;;;19.95;79.27
21129;BME280;10722;51.910;8.352;2023-05-09T10:55:57;100372.38;;;19.93;80.62
21129;BME280;10722;51.910;8.352;2023-05-09T10:58:46;100372.59;;;20.17;80.85
21129;BME280;10722;51.910;8.352;2023-05-09T11:04:17;100341.72;;;19.94;79.66
21129;BME280;10722;51.910;8.352;2023-05-09T11:07:19;100336.13;;;20.06;79.12
21129;BME280;10722;51.910;8.352;2023-05-09T11:10:17;100305.94;;;20.21;77.68
21129;BME280;10722;51.910;8.352;2023-05-09T11:13:02;100292.34;;;20.07;77.05
21129;BME280;10722;51.910;8.352;2023-05-09T11:18:50;100298.94;;;19.56;77.58
21129;BME280;10722;51.910;8.352;2023-05-09T11:21:35;100316.78;;;19.78;78.69
21129;BME280;10722;51.910;8.352;2023-05-09T11:24:21;100310.97;;;19.99;77.89
21129;BME280;10722;51.910;8.352;2023-05-09T11:27:25;100301.63;;;19.87;78.21
21129;BME280;10722;51.910;8.352;2023-05-09T11:30:12;100308.41;;;19.63;78.53
21129;BME280;10722;51.910;8.352;2023-05-09T11:32:57;100313.31;;;19.41;79.13
21129;BME280;10722;51.910;8.352;2023-05-09T11:35:43;100305.72;;;19.31;79.14
21129;BME280;10722;51.910;8.352;2023-05-09T11:38:39;100308.84;;;19.11;79.60
21129;BME280;10722;51.910;8.352;2023-05-09T11:41:26;100311.63;;;19.03;79.73
21129;BME280;10722;51.910;8.352;2023-05-09T11:44:15;100328.13;;;19.08;80.64
21129;BME280;10722;51.910;8.352;2023-05-09T11:47:01;100336.75;;;19.13;81.13
21129;BME280;10722;51.910;8.352;2023-05-09T11:49:49;100330.59;;;19.14;81.30
21129;BME280;10722;51.910;8.352;2023-05-09T11:52:35;100326.00;;;19.24;81.12
21129;BME280;10722;51.910;8.352;2023-05-09T11:55:26;100325.66;;;19.38;81.31
21129;BME280;10722;51.910;8.352;2023-05-09T11:58:12;100293.75;;;19.55;79.70
21129;BME280;10722;51.910;8.352;2023-05-09T12:00:57;100270.31;;;19.81;78.18
21129;BME280;10722;51.910;8.352;2023-05-09T12:03:43;100233.69;;;20.08;75.99
21129;BME280;10722;51.910;8.352;2023-05-09T12:06:29;100234.94;;;20.24;75.65
21129;BME280;10722;51.910;8.352;2023-05-09T12:09:15;100219.56;;;20.40;75.88
21129;BME280;10722;51.910;8.352;2023-05-09T12:12:00;100213.59;;;20.35;75.05
21129;BME280;10722;51.910;8.352;2023-05-09T12:14:47;100204.81;;;20.36;75.08
21129;BME280;10722;51.910;8.352;2023-05-09T12:17:33;100199.84;;;20.27;74.99
21129;BME280;10722;51.910;8.352;2023-05-09T12:20:19;100204.03;;;20.32;74.27
21129;BME280;10722;51.910;8.352;2023-05-09T12:23:04;100199.94;;;20.52;74.65
21129;BME280;10722;51.910;8.352;2023-05-09T12:25:55;100166.22;;;20.38;73.12
21129;BME280;10722;51.910;8.352;2023-05-09T12:28:41;100170.09;;;20.54;73.09
21129;BME280;10722;51.910;8.352;2023-05-09T12:31:27;100177.94;;;20.56;73.02
21129;BME280;10722;51.910;8.352;2023-05-09T12:34:12;100152.63;;;20.52;72.17
21129;BME280;10722;51.910;8.352;2023-05-09T12:36:57;100151.22;;;20.70;71.83
21129;BME280;10722;51.910;8.352;2023-05-09T12:40:04;100134.31;;;20.50;70.75
21129;BME280;10722;51.910;8.352;2023-05-09T12:42:50;100138.22;;;20.65;70.60
21129;BME280;10722;51.910;8.352;2023-05-09T12:45:37;100121.66;;;20.88;68.82
21129;BME280;10722;51.910;8.352;2023-05-09T12:48:23;100133.69;;;21.20;69.04
21129;BME280;10722;51.910;8.352;2023-05-09T12:51:09;100101.81;;;21.28;67.75
21129;BME280;10722;51.910;8.352;2023-05-09T12:53:54;100105.97;;;21.35;67.43
21129;BME280;10722;51.910;8.352;2023-05-09T12:56:46;100099.78;;;21.38;67.18
21129;BME280;10722;51.910;8.352;2023-05-09T12:59:31;100107.78;;;21.10;66.73
21129;BME280;10722;51.910;8.352;2023-05-09T13:02:16;100114.72;;;21.11;67.93
21129;BME280;10722;51.910;8.352;2023-05-09T13:05:09;100082.84;;;21.20;66.35
21129;BME280;10722;51.910;8.352;2023-05-09T13:07:55;100087.91;;;21.01;66.51
21129;BME280;10722;51.910;8.352;2023-05-09T13:10:41;100110.88;;;20.96;67.94
21129;BME280;10722;51.910;8.352;2023-05-09T13:13:26;100114.47;;;21.18;67.74
21129;BME280;10722;51.910;8.352;2023-05-09T13:16:12;100105.63;;;21.21;67.76
21129;BME280;10722;51.910;8.352;2023-05-09T13:19:01;100109.94;;;21.22;68.56
21129;BME280;10722;51.910;8.352;2023-05-09T13:21:46;100088.63;;;21.30;67.51
21129;BME280;10722;51.910;8.352;2023-05-09T13:24:32;100073.81;;;20.78;67.75
21129;BME280;10722;51.910;8.352;2023-05-09T13:27:17;100091.63;;;20.70;68.34
21129;BME280;10722;51.910;8.352;2023-05-09T13:30:03;100093.78;;;20.57;68.68
21129;BME280;10722;51.910;8.352;2023-05-09T13:32:48;100092.38;;;20.47;68.96
21129;BME280;10722;51.910;8.352;2023-05-09T13:35:34;100155.59;;;19.85;73.15
21129;BME280;10722;51.910;8.352;2023-05-09T13:38:19;100252.22;;;19.70;79.58
21129;BME280;10722;51.910;8.352;2023-05-09T13:41:05;100273.97;;;19.41;82.68
21129;BME280;10722;51.910;8.352;2023-05-09T13:43:50;100294.22;;;19.00;85.81
21129;BME280;10722;51.910;8.352;2023-05-09T13:46:36;100312.59;;;18.20;91.37
21129;BME280;10722;51.910;8.352;2023-05-09T13:49:21;100320.03;;;18.38;94.15
21129;BME280;10722;51.910;8.352;2023-05-09T13:52:07;100315.50;;;18.46;95.84
21129;BME280;10722;51.910;8.352;2023-05-09T13:54:52;100315.97;;;18.65;95.64
21129;BME280;10722;51.910;8.352;2023-05-09T13:57:37;100304.28;;;18.81;95.66
21129;BME280;10722;51.910;8.352;2023-05-09T14:00:23;100289.09;;;18.96;95.04
21129;BME280;10722;51.910;8.352;2023-05-09T14:03:07;100280.06;;;19.08;94.22
21129;BME280;10722;51.910;8.352;2023-05-09T14:05:53;100262.72;;;19.02;93.43
21129;BME280;10722;51.910;8.352;2023-05-09T14:08:46;100257.81;;;19.24;92.79
21129;BME280;10722;51.910;8.352;2023-05-09T14:11:32;100254.50;;;19.50;92.37
21129;BME280;10722;51.910;8.352;2023-05-09T14:14:23;100250.88;;;19.56;92.56
21129;BME280;10722;51.910;8.352;2023-05-09T14:17:08;100225.91;;;19.74;90.99
21129;BME280;10722;51.910;8.352;2023-05-09T14:19:53;100238.44;;;19.62;91.69
21129;BME280;10722;51.910;8.352;2023-05-09T14:22:38;100231.81;;;19.49;90.14
21129;BME280;10722;51.910;8.352;2023-05-09T14:25:24;100206.72;;;18.69;89.75
21129;BME280;10722;51.910;8.352;2023-05-09T14:28:09;100225.22;;;18.61;91.45
21129;BME280;10722;51.910;8.352;2023-05-09T14:30:54;100221.06;;;18.52;92.11
21129;BME280;10722;51.910;8.352;2023-05-09T14:33:39;100234.91;;;18.59;93.00
21129;BME280;10722;51.910;8.352;2023-05-09T14:36:27;100205.00;;;18.68;91.48
21129;BME280;10722;51.910;8.352;2023-05-09T14:39:12;100201.19;;;18.83;91.17